createdAt,value
2019-01-24T00:01:49.295Z,28.60
2019-01-24T00:04:16.848Z,28.73
2019-01-24T00:06:43.715Z,27.57
2019-01-24T00:09:10.090Z,28.70
2019-01-24T00:11:36.377Z,26.67
2019-01-24T00:14:02.569Z,28.20
2019-01-24T00:16:28.753Z,27.23
2019-01-24T00:18:54.934Z,29.30
2019-01-24T00:21:21.110Z,27.90
2019-01-24T00:23:47.294Z,29.00
2019-01-24T00:26:13.465Z,29.13
2019-01-24T00:28:39.642Z,27.03
2019-01-24T00:31:05.814Z,29.07
2019-01-24T00:33:32.000Z,28.37
2019-01-24T00:35:58.188Z,28.07
2019-01-24T00:38:24.380Z,28.07
2019-01-24T00:40:50.550Z,29.50
2019-01-24T00:43:16.747Z,27.90
2019-01-24T00:45:42.933Z,29.87
2019-01-24T00:48:09.131Z,29.80
2019-01-24T00:50:35.310Z,29.90
2019-01-24T00:53:01.500Z,28.53
2019-01-24T00:55:27.683Z,29.30
2019-01-24T00:57:53.871Z,29.97
2019-01-24T01:00:24.269Z,29.13
2019-01-24T01:02:50.663Z,29.17
2019-01-24T01:05:17.347Z,29.83
2019-01-24T01:07:43.835Z,28.50
2019-01-24T01:10:11.719Z,29.30
2019-01-24T01:12:38.224Z,30.27
2019-01-24T01:15:09.811Z,29.43
2019-01-24T01:17:36.005Z,30.43
2019-01-24T01:20:07.294Z,29.83
2019-01-24T01:22:33.485Z,28.27
2019-01-24T01:24:59.682Z,28.87
2019-01-24T01:27:25.867Z,28.47
2019-01-24T01:29:52.062Z,28.90
2019-01-24T01:32:18.234Z,28.83
2019-01-24T01:34:44.519Z,27.63
2019-01-24T01:37:10.692Z,29.77
2019-01-24T01:39:36.886Z,26.90
2019-01-24T01:42:03.163Z,28.03
2019-01-24T01:44:29.363Z,26.87
2019-01-24T01:46:55.539Z,27.60
2019-01-24T01:49:21.739Z,28.10
2019-01-24T01:51:47.914Z,29.27
2019-01-24T01:54:14.107Z,29.63
2019-01-24T01:56:40.306Z,29.10
2019-01-24T01:59:06.503Z,29.03
2019-01-24T02:01:32.673Z,29.40
2019-01-24T02:03:59.005Z,28.43
2019-01-24T02:06:25.191Z,28.27
2019-01-24T02:08:51.389Z,29.60
2019-01-24T02:11:17.572Z,28.67
2019-01-24T02:13:43.867Z,29.63
2019-01-24T02:16:10.047Z,29.53
2019-01-24T02:18:36.220Z,32.63
2019-01-24T02:21:02.815Z,31.97
2019-01-24T02:23:29.009Z,32.07
2019-01-24T02:25:55.199Z,32.37
2019-01-24T02:28:21.381Z,32.30
2019-01-24T02:30:47.573Z,33.37
2019-01-24T02:33:13.753Z,32.73
2019-01-24T02:35:39.945Z,33.60
2019-01-24T02:38:06.114Z,33.80
2019-01-24T02:40:32.303Z,34.50
2019-01-24T02:42:58.475Z,33.93
2019-01-24T02:45:24.674Z,32.37
2019-01-24T02:47:51.248Z,32.27
2019-01-24T02:50:20.646Z,30.80
2019-01-24T02:52:47.125Z,30.90
2019-01-24T02:55:14.923Z,31.67
2019-01-24T02:57:42.102Z,31.67
2019-01-24T03:00:18.235Z,30.20
2019-01-24T03:02:44.435Z,31.60
2019-01-24T03:05:14.838Z,32.17
2019-01-24T03:07:41.111Z,32.07
2019-01-24T03:10:11.508Z,32.47
2019-01-24T03:12:37.695Z,30.70
2019-01-24T03:15:08.896Z,31.53
2019-01-24T03:17:35.075Z,32.57
2019-01-24T03:20:01.459Z,30.27
2019-01-24T03:22:27.644Z,31.73
2019-01-24T03:24:53.838Z,31.07
2019-01-24T03:27:20.013Z,31.47
2019-01-24T03:29:46.203Z,30.80
2019-01-24T03:32:12.381Z,29.03
2019-01-24T03:34:38.559Z,29.03
2019-01-24T03:37:04.744Z,30.30
2019-01-24T03:39:30.927Z,28.17
2019-01-24T03:41:57.103Z,28.93
2019-01-24T03:44:23.287Z,30.60
2019-01-24T03:46:49.479Z,32.73
2019-01-24T03:49:15.657Z,31.23
2019-01-24T03:51:42.455Z,33.10
2019-01-24T03:54:08.664Z,30.13
2019-01-24T03:56:35.046Z,29.77
2019-01-24T03:59:01.311Z,34.00
2019-01-24T04:01:27.515Z,32.97
2019-01-24T04:03:53.698Z,34.30
2019-01-24T04:06:19.893Z,33.23
2019-01-24T04:08:46.061Z,33.33
2019-01-24T04:11:12.244Z,32.83
2019-01-24T04:13:38.421Z,32.63
2019-01-24T04:16:04.612Z,34.27
2019-01-24T04:18:30.779Z,33.83
2019-01-24T04:20:56.971Z,32.53
2019-01-24T04:23:23.142Z,33.33
2019-01-24T04:25:49.328Z,34.20
2019-01-24T04:28:15.522Z,34.17
2019-01-24T04:30:41.956Z,33.97
2019-01-24T04:33:08.131Z,35.43
2019-01-24T04:35:34.326Z,33.77
2019-01-24T04:38:00.502Z,34.67
2019-01-24T04:40:26.696Z,33.03
2019-01-24T04:42:52.880Z,32.40
2019-01-24T04:45:19.163Z,33.60
2019-01-24T04:47:45.843Z,33.67
2019-01-24T04:50:14.531Z,34.93
2019-01-24T04:52:40.916Z,35.87
2019-01-24T04:55:10.615Z,34.93
2019-01-24T04:57:36.796Z,35.50
2019-01-24T05:00:11.639Z,34.73
2019-01-24T05:02:37.833Z,35.20
2019-01-24T05:05:04.430Z,35.43
2019-01-24T05:07:30.603Z,34.97
2019-01-24T05:09:56.793Z,35.30
2019-01-24T05:12:22.972Z,33.10
2019-01-24T05:14:49.156Z,34.43
2019-01-24T05:17:15.338Z,34.00
2019-01-24T05:19:41.525Z,32.27
2019-01-24T05:22:07.722Z,34.30
2019-01-24T05:24:33.899Z,33.53
2019-01-24T05:27:00.091Z,35.03
2019-01-24T05:29:26.276Z,34.37
2019-01-24T05:31:52.462Z,32.43
2019-01-24T05:34:18.637Z,35.43
2019-01-24T05:36:44.816Z,34.80
2019-01-24T05:39:10.990Z,33.87
2019-01-24T05:41:37.190Z,34.53
2019-01-24T05:44:03.356Z,35.37
2019-01-24T05:46:29.539Z,33.40
2019-01-24T05:48:55.729Z,33.93
2019-01-24T05:51:21.913Z,33.80
2019-01-24T05:53:48.085Z,33.93
2019-01-24T05:56:14.285Z,35.53
2019-01-24T05:58:40.468Z,33.33
2019-01-24T06:01:07.566Z,34.83
2019-01-24T06:03:33.755Z,34.07
2019-01-24T06:05:59.950Z,34.37
2019-01-24T06:08:26.127Z,34.77
2019-01-24T06:10:52.328Z,34.70
2019-01-24T06:13:18.513Z,35.73
2019-01-24T06:15:44.721Z,35.93
2019-01-24T06:18:10.887Z,37.27
2019-01-24T06:20:37.129Z,36.00
2019-01-24T06:23:03.319Z,35.67
2019-01-24T06:25:29.501Z,35.40
2019-01-24T06:28:11.037Z,37.73
2019-01-24T06:30:37.236Z,37.30
2019-01-24T06:33:03.423Z,36.77
2019-01-24T06:35:29.607Z,37.20
2019-01-24T06:37:55.787Z,38.17
2019-01-24T06:40:22.073Z,38.33
2019-01-24T06:42:48.268Z,38.70
2019-01-24T06:45:18.149Z,37.20
2019-01-24T06:47:44.356Z,37.90
2019-01-24T06:50:13.437Z,36.37
2019-01-24T06:52:39.721Z,37.83
2019-01-24T06:55:10.920Z,38.53
2019-01-24T06:57:37.460Z,37.87
2019-01-24T07:00:16.171Z,38.70
2019-01-24T07:02:42.577Z,35.87
2019-01-24T07:05:09.163Z,37.77
2019-01-24T07:07:35.351Z,36.60
2019-01-24T07:10:04.938Z,38.00
2019-01-24T07:12:31.135Z,36.97
2019-01-24T07:14:57.578Z,38.53
2019-01-24T07:17:23.779Z,37.43
2019-01-24T07:19:49.958Z,37.97
2019-01-24T07:22:16.432Z,35.53
2019-01-24T07:24:42.614Z,37.77
2019-01-24T07:27:08.804Z,34.27
2019-01-24T07:29:35.332Z,26.70
2019-01-24T07:32:01.522Z,30.63
2019-01-24T07:34:27.697Z,36.13
2019-01-24T07:36:53.898Z,37.03
2019-01-24T07:39:20.083Z,38.50
2019-01-24T07:41:46.279Z,39.70
2019-01-24T07:44:12.465Z,40.03
2019-01-24T07:46:38.658Z,38.17
2019-01-24T07:49:04.841Z,39.73
2019-01-24T07:51:31.031Z,39.97
2019-01-24T07:53:57.214Z,41.40
2019-01-24T07:56:23.405Z,38.03
2019-01-24T07:58:49.587Z,38.07
2019-01-24T08:01:15.772Z,37.67
2019-01-24T08:03:41.973Z,38.00
2019-01-24T08:06:09.265Z,37.67
2019-01-24T08:08:35.658Z,38.50
2019-01-24T08:11:01.839Z,38.83
2019-01-24T08:13:28.034Z,39.00
2019-01-24T08:15:54.215Z,39.53
2019-01-24T08:18:20.411Z,41.00
2019-01-24T08:20:46.595Z,37.83
2019-01-24T08:23:12.787Z,38.20
2019-01-24T08:25:38.987Z,38.27
2019-01-24T08:28:05.185Z,39.00
2019-01-24T08:30:32.281Z,39.13
2019-01-24T08:32:58.473Z,38.43
2019-01-24T08:35:24.653Z,39.23
2019-01-24T08:37:51.155Z,38.43
2019-01-24T08:40:20.839Z,41.27
2019-01-24T08:42:47.529Z,41.00
2019-01-24T08:45:14.551Z,39.90
2019-01-24T08:47:40.955Z,40.13
2019-01-24T08:50:14.447Z,40.07
2019-01-24T08:52:40.637Z,41.43
2019-01-24T08:55:23.995Z,39.27
2019-01-24T08:57:50.194Z,39.93
2019-01-24T09:00:19.490Z,44.77
2019-01-24T09:02:45.895Z,45.13
2019-01-24T09:05:12.579Z,41.50
2019-01-24T09:07:39.080Z,40.97
2019-01-24T09:10:10.763Z,37.27
2019-01-24T09:12:36.975Z,37.23
2019-01-24T09:15:08.574Z,37.07
2019-01-24T09:17:34.763Z,38.07
2019-01-24T09:20:00.942Z,38.43
2019-01-24T09:22:27.401Z,35.60
2019-01-24T09:24:53.584Z,32.80
2019-01-24T09:27:19.798Z,35.70
2019-01-24T09:29:45.966Z,32.50
2019-01-24T09:32:12.164Z,30.40
2019-01-24T09:34:38.348Z,24.70
2019-01-24T09:37:04.535Z,26.87
2019-01-24T09:39:30.722Z,34.23
2019-01-24T09:41:57.158Z,28.17
2019-01-24T09:44:23.341Z,29.90
2019-01-24T09:46:49.529Z,30.43
2019-01-24T09:49:15.711Z,30.60
2019-01-24T09:51:41.899Z,26.97
2019-01-24T09:54:08.140Z,19.60
2019-01-24T09:56:35.142Z,19.57
2019-01-24T09:59:01.334Z,20.07
2019-01-24T10:01:27.511Z,18.10
2019-01-24T10:03:53.712Z,19.30
2019-01-24T10:06:19.891Z,17.83
2019-01-24T10:08:46.358Z,19.20
2019-01-24T10:11:12.549Z,18.37
2019-01-24T10:13:38.739Z,19.33
2019-01-24T10:16:05.014Z,19.83
2019-01-24T10:18:31.231Z,18.23
2019-01-24T10:20:57.803Z,18.20
2019-01-24T10:23:52.077Z,19.63
2019-01-24T10:26:18.272Z,18.63
2019-01-24T10:28:44.459Z,17.43
2019-01-24T10:31:10.644Z,19.30
2019-01-24T10:33:36.847Z,18.87
2019-01-24T10:36:03.141Z,18.10
2019-01-24T10:38:41.399Z,18.87
2019-01-24T10:41:07.586Z,18.83
2019-01-24T10:43:33.775Z,19.27
2019-01-24T10:45:59.953Z,19.00
2019-01-24T10:48:26.147Z,20.50
2019-01-24T10:50:52.335Z,19.27
2019-01-24T10:53:18.528Z,19.53
2019-01-24T10:55:44.710Z,19.57
2019-01-24T10:58:10.908Z,19.43
2019-01-24T11:00:38.700Z,19.47
2019-01-24T11:03:08.512Z,19.53
2019-01-24T11:05:34.687Z,20.57
2019-01-24T11:08:01.082Z,20.87
2019-01-24T11:10:27.355Z,21.47
2019-01-24T11:12:53.563Z,20.87
2019-01-24T11:15:22.565Z,21.37
2019-01-24T11:17:48.746Z,21.80
2019-01-24T11:20:17.945Z,21.23
2019-01-24T11:22:44.323Z,20.40
2019-01-24T11:25:16.890Z,21.80
2019-01-24T11:27:43.164Z,21.57
2019-01-24T11:30:20.151Z,20.63
2019-01-24T11:32:46.587Z,21.13
2019-01-24T11:35:19.734Z,21.03
2019-01-24T11:37:45.913Z,20.47
2019-01-24T11:40:16.140Z,20.20
2019-01-24T11:42:42.621Z,21.10
2019-01-24T11:45:12.126Z,20.87
2019-01-24T11:47:38.314Z,21.53
2019-01-24T11:50:16.841Z,21.77
2019-01-24T11:52:43.526Z,21.53
2019-01-24T11:55:13.317Z,21.73
2019-01-24T11:57:39.507Z,20.87
2019-01-24T12:00:19.831Z,22.63
2019-01-24T12:02:46.026Z,21.27
2019-01-24T12:05:12.531Z,21.70
2019-01-24T12:07:38.717Z,20.87
2019-01-24T12:10:18.258Z,21.30
2019-01-24T12:12:44.434Z,23.43
2019-01-24T12:15:15.253Z,21.27
2019-01-24T12:17:43.341Z,22.60
2019-01-24T12:20:14.335Z,19.70
2019-01-24T12:22:40.784Z,23.90
2019-01-24T12:25:09.175Z,24.13
2019-01-24T12:27:35.346Z,22.07
2019-01-24T12:30:08.517Z,19.93
2019-01-24T12:32:34.692Z,20.60
2019-01-24T12:35:00.904Z,20.13
2019-01-24T12:37:27.090Z,20.10
2019-01-24T12:39:53.275Z,20.47
2019-01-24T12:42:19.463Z,21.43
2019-01-24T12:44:45.652Z,20.77
2019-01-24T12:47:11.834Z,19.33
2019-01-24T12:49:38.020Z,19.10
2019-01-24T12:52:04.204Z,20.47
2019-01-24T12:54:30.403Z,19.57
2019-01-24T12:56:56.590Z,20.37
2019-01-24T12:59:22.779Z,20.30
2019-01-24T13:01:48.967Z,19.53
2019-01-24T13:04:15.167Z,18.10
2019-01-24T13:06:41.356Z,17.40
2019-01-24T13:09:07.546Z,19.17
2019-01-24T13:11:33.734Z,19.30
2019-01-24T13:13:59.936Z,19.10
2019-01-24T13:16:26.115Z,17.53
2019-01-24T13:18:52.303Z,18.50
2019-01-24T13:21:18.515Z,18.63
2019-01-24T13:23:44.704Z,17.77
2019-01-24T13:26:10.890Z,18.87
2019-01-24T13:28:37.073Z,18.40
2019-01-24T13:31:03.263Z,18.73
2019-01-24T13:33:29.434Z,19.07
2019-01-24T13:35:55.620Z,18.33
2019-01-24T13:38:21.810Z,19.47
2019-01-24T13:40:48.013Z,19.50
2019-01-24T13:43:14.204Z,19.73
2019-01-24T13:45:40.394Z,18.23
2019-01-24T13:48:06.871Z,19.23
2019-01-24T13:50:33.071Z,19.23
2019-01-24T13:52:59.466Z,17.70
2019-01-24T13:55:25.655Z,18.57
2019-01-24T13:57:51.840Z,19.00
2019-01-24T14:00:27.555Z,18.30
2019-01-24T14:02:59.471Z,18.20
2019-01-24T14:05:25.656Z,17.60
2019-01-24T14:07:51.838Z,17.93
2019-01-24T14:10:18.231Z,20.23
2019-01-24T14:12:44.406Z,18.77
2019-01-24T14:15:17.377Z,20.17
2019-01-24T14:17:43.751Z,18.90
2019-01-24T14:20:16.655Z,18.80
2019-01-24T14:22:42.834Z,19.43
2019-01-24T14:25:13.536Z,20.10
2019-01-24T14:27:41.015Z,19.60
2019-01-24T14:30:26.859Z,20.30
2019-01-24T14:32:53.043Z,19.97
2019-01-24T14:35:20.146Z,20.40
2019-01-24T14:37:46.630Z,20.53
2019-01-24T14:40:13.985Z,20.33
2019-01-24T14:42:40.219Z,22.87
2019-01-24T14:45:11.885Z,22.40
2019-01-24T14:47:40.084Z,21.13
2019-01-24T14:50:11.783Z,22.40
2019-01-24T14:52:38.335Z,20.77
2019-01-24T14:55:09.491Z,20.67
2019-01-24T14:57:35.677Z,20.83
2019-01-24T15:00:07.777Z,19.13
2019-01-24T15:02:33.961Z,20.70
2019-01-24T15:05:00.239Z,20.73
2019-01-24T15:07:26.437Z,18.97
2019-01-24T15:09:52.619Z,20.07
2019-01-24T15:12:18.810Z,21.03
2019-01-24T15:14:45.052Z,20.07
2019-01-24T15:17:11.252Z,20.13
2019-01-24T15:19:37.439Z,20.30
2019-01-24T15:22:03.627Z,19.10
2019-01-24T15:24:29.803Z,20.37
2019-01-24T15:26:55.982Z,19.10
2019-01-24T15:29:22.171Z,18.67
2019-01-24T15:31:48.366Z,17.87
2019-01-24T15:34:14.542Z,19.50
2019-01-24T15:36:40.736Z,18.70
2019-01-24T15:39:07.012Z,19.50
2019-01-24T15:41:33.206Z,19.93
2019-01-24T15:43:59.375Z,19.07
2019-01-24T15:46:25.574Z,18.20
2019-01-24T15:48:51.803Z,19.70
2019-01-24T15:51:18.203Z,19.40
2019-01-24T15:53:44.374Z,18.03
2019-01-24T15:56:10.568Z,19.30
2019-01-24T15:58:36.743Z,18.67
2019-01-24T16:01:03.439Z,19.60
2019-01-24T16:03:29.623Z,19.63
2019-01-24T16:05:56.115Z,19.77
2019-01-24T16:08:22.298Z,20.13
2019-01-24T16:10:48.711Z,19.47
2019-01-24T16:13:14.886Z,18.87
2019-01-24T16:15:41.075Z,18.27
2019-01-24T16:18:07.765Z,19.13
2019-01-24T16:20:34.133Z,19.53
2019-01-24T16:23:00.259Z,20.13
2019-01-24T16:25:50.193Z,19.67
2019-01-24T16:28:16.472Z,18.63
2019-01-24T16:30:56.696Z,19.27
2019-01-24T16:33:22.968Z,19.60
2019-01-24T16:35:49.147Z,19.53
2019-01-24T16:38:15.325Z,19.37
2019-01-24T16:40:41.516Z,20.07
2019-01-24T16:43:07.698Z,19.83
2019-01-24T16:45:33.883Z,21.87
2019-01-24T16:48:00.179Z,18.73
2019-01-24T16:50:26.966Z,19.87
2019-01-24T16:52:53.148Z,20.07
2019-01-24T16:55:19.633Z,21.30
2019-01-24T16:57:48.031Z,18.20
2019-01-24T17:00:22.538Z,19.17
2019-01-24T17:02:50.775Z,19.90
2019-01-24T17:05:17.467Z,20.17
2019-01-24T17:07:43.743Z,20.30
2019-01-24T17:10:28.480Z,19.50
2019-01-24T17:12:54.842Z,19.10
2019-01-24T17:15:21.635Z,20.70
2019-01-24T17:17:55.596Z,19.90
2019-01-24T17:20:27.419Z,19.20
2019-01-24T17:22:59.522Z,19.27
2019-01-24T17:25:29.408Z,19.57
2019-01-24T17:27:55.802Z,20.17
2019-01-24T17:30:32.566Z,18.57
2019-01-24T17:33:00.188Z,19.70
2019-01-24T17:35:26.678Z,19.43
2019-01-24T17:37:53.159Z,18.97
2019-01-24T17:40:26.309Z,18.33
2019-01-24T17:42:52.606Z,19.57
2019-01-24T17:45:18.898Z,19.17
2019-01-24T17:47:45.098Z,18.53
2019-01-24T17:50:14.085Z,19.83
2019-01-24T17:52:40.268Z,18.87
2019-01-24T17:55:23.588Z,19.50
2019-01-24T17:57:50.126Z,19.90
2019-01-24T18:00:20.218Z,18.70
2019-01-24T18:02:46.415Z,20.53
2019-01-24T18:05:13.070Z,21.00
2019-01-24T18:07:39.295Z,19.40
2019-01-24T18:10:26.860Z,20.40
2019-01-24T18:12:53.059Z,20.40
2019-01-24T18:15:25.511Z,19.23
2019-01-24T18:17:51.709Z,19.30
2019-01-24T18:20:22.305Z,19.37
